North Stonington, Connecticut
Current Conditions -  °F | °C
As of 4:53 PM on Sunday 21 Dec 2014 (Local Time) from KWST Reporting Station
Overcast Overcast  
Wind Chill: 30°   Ceiling: 4000
Heat Index: 36°   Visibility: 10mi
Dew Point: 32°   Wind: 8mph
Humidity: 86%   Direction: 30°NNE
Pressure: 30.29"   Gusts: NA
Location:  41.44°N, 71.88°W
Report Text: KWST 212153Z AUTO 03007KT 10SM BKN040 OVC048 02/00 A3029 RMK AO2 SLP257 T00220000
Loading
Personal Weather Stations






























Interactive Weather Map New forecast layout! Learn more

10-Day Weather Forecast

Advertisements
Track Severe Weather on mobile